createdAt,value
2018-11-01T00:00:50.999Z,3.58
2018-11-01T00:03:18.481Z,4.05
2018-11-01T00:05:45.941Z,4.43
2018-11-01T00:08:13.393Z,5.15
2018-11-01T00:10:40.939Z,3.62
2018-11-01T00:13:09.258Z,3.95
2018-11-01T00:15:36.695Z,4.20
2018-11-01T00:18:04.128Z,6.05
2018-11-01T00:20:31.694Z,5.25
2018-11-01T00:22:59.350Z,4.70
2018-11-01T00:25:26.907Z,4.80
2018-11-01T00:27:54.385Z,6.25
2018-11-01T00:30:21.833Z,6.00
2018-11-01T00:32:50.194Z,4.70
2018-11-01T00:35:17.627Z,5.20
2018-11-01T00:37:45.047Z,5.37
2018-11-01T00:40:12.528Z,5.25
2018-11-01T00:42:40.059Z,5.50
2018-11-01T00:45:07.516Z,4.55
2018-11-01T00:47:34.973Z,6.00
2018-11-01T00:50:02.423Z,5.50
2018-11-01T00:52:30.757Z,6.50
2018-11-01T00:54:58.510Z,6.35
2018-11-01T00:57:25.991Z,6.10
2018-11-01T00:59:53.610Z,5.40
2018-11-01T01:02:21.322Z,5.97
2018-11-01T01:04:48.767Z,4.95
2018-11-01T01:07:16.203Z,6.82
2018-11-01T01:09:43.637Z,5.55
2018-11-01T01:12:11.077Z,4.70
2018-11-01T01:14:38.728Z,5.18
2018-11-01T01:17:06.157Z,4.82
2018-11-01T01:19:33.594Z,6.60
2018-11-01T01:22:01.042Z,5.10
2018-11-01T01:24:28.557Z,5.45
2018-11-01T01:26:56.022Z,6.10
2018-11-01T01:29:23.498Z,4.82
2018-11-01T01:31:50.940Z,5.22
2018-11-01T01:34:18.386Z,6.05
2018-11-01T01:36:45.810Z,3.47
2018-11-01T01:39:13.248Z,5.15
2018-11-01T01:41:40.709Z,4.70
2018-11-01T01:44:08.142Z,7.47
2018-11-01T01:46:35.568Z,5.78
2018-11-01T01:49:03.007Z,5.50
2018-11-01T01:51:30.572Z,4.82
2018-11-01T01:53:57.999Z,5.30
2018-11-01T01:56:25.544Z,5.60
2018-11-01T01:58:52.970Z,5.93
2018-11-01T02:01:20.399Z,5.18
2018-11-01T02:03:47.823Z,4.80
2018-11-01T02:06:15.264Z,5.20
2018-11-01T02:08:42.695Z,4.97
2018-11-01T02:11:10.135Z,4.97
2018-11-01T02:13:37.563Z,6.35
2018-11-01T02:16:04.991Z,5.93
2018-11-01T02:18:32.527Z,6.20
2018-11-01T02:20:59.271Z,6.43
2018-11-01T02:23:26.711Z,8.50
2018-11-01T02:25:54.150Z,7.03
2018-11-01T02:28:21.740Z,7.05
2018-11-01T02:30:49.195Z,8.05
2018-11-01T02:33:16.694Z,7.95
2018-11-01T02:35:44.218Z,6.90
2018-11-01T02:38:11.753Z,7.82
2018-11-01T02:40:39.166Z,6.40
2018-11-01T02:43:06.621Z,4.45
2018-11-01T02:45:34.100Z,4.78
2018-11-01T02:48:01.551Z,5.18
2018-11-01T02:50:28.967Z,4.18
2018-11-01T02:52:56.443Z,4.70
2018-11-01T02:55:23.883Z,4.90
2018-11-01T02:57:51.317Z,4.95
2018-11-01T03:00:18.733Z,4.65
2018-11-01T03:02:46.151Z,3.90
2018-11-01T03:05:13.582Z,3.90
2018-11-01T03:07:41.916Z,5.05
2018-11-01T03:10:09.340Z,4.20
2018-11-01T03:12:36.793Z,3.95
2018-11-01T03:15:04.921Z,4.47
2018-11-01T03:17:32.349Z,4.87
2018-11-01T03:19:59.781Z,3.90
2018-11-01T03:22:27.209Z,5.57
2018-11-01T03:24:54.641Z,4.30
2018-11-01T03:27:22.060Z,4.28
2018-11-01T03:29:49.499Z,4.62
2018-11-01T03:32:16.935Z,4.35
2018-11-01T03:34:44.364Z,4.47
2018-11-01T03:37:11.807Z,3.92
2018-11-01T03:39:39.250Z,4.30
2018-11-01T03:42:06.671Z,4.75
2018-11-01T03:44:34.121Z,5.80
2018-11-01T03:47:01.611Z,5.07
2018-11-01T03:49:29.099Z,5.37
2018-11-01T03:51:56.681Z,6.07
2018-11-01T03:54:24.162Z,5.20
2018-11-01T03:56:51.535Z,5.20
2018-11-01T03:59:19.025Z,5.10
2018-11-01T04:01:46.515Z,5.28
2018-11-01T04:04:13.952Z,5.80
2018-11-01T04:06:41.379Z,5.75
2018-11-01T04:09:08.832Z,5.40
2018-11-01T04:11:36.306Z,5.75
2018-11-01T04:14:03.747Z,4.93
2018-11-01T04:16:31.236Z,5.50
2018-11-01T04:18:58.672Z,6.18
2018-11-01T04:21:26.091Z,5.65
2018-11-01T04:23:54.328Z,5.45
2018-11-01T04:26:21.774Z,6.55
2018-11-01T04:28:49.241Z,5.25
2018-11-01T04:31:16.647Z,5.68
2018-11-01T04:33:44.247Z,5.80
2018-11-01T04:36:11.774Z,5.35
2018-11-01T04:38:39.196Z,5.62
2018-11-01T04:41:06.656Z,5.15
2018-11-01T04:43:34.807Z,5.53
2018-11-01T04:46:02.228Z,4.85
2018-11-01T04:48:29.644Z,4.32
2018-11-01T04:50:57.095Z,3.95
2018-11-01T04:53:25.272Z,4.95
2018-11-01T04:55:52.697Z,4.80
2018-11-01T04:58:20.122Z,5.37
2018-11-01T05:00:47.546Z,4.32
2018-11-01T05:03:15.706Z,3.72
2018-11-01T05:05:43.267Z,3.53
2018-11-01T05:08:10.776Z,4.22
2018-11-01T05:10:38.195Z,4.53
2018-11-01T05:13:05.626Z,4.25
2018-11-01T05:15:33.056Z,4.00
2018-11-01T05:18:00.497Z,5.55
2018-11-01T05:20:27.953Z,4.25
2018-11-01T05:22:55.383Z,3.95
2018-11-01T05:25:22.833Z,4.35
2018-11-01T05:27:50.273Z,4.00
2018-11-01T05:30:17.730Z,3.90
2018-11-01T05:32:45.191Z,4.53
2018-11-01T05:35:12.648Z,4.40
2018-11-01T05:37:40.096Z,3.97
2018-11-01T05:40:07.683Z,4.22
2018-11-01T05:42:35.130Z,4.15
2018-11-01T05:45:02.761Z,3.40
2018-11-01T05:47:30.249Z,4.00
2018-11-01T05:49:57.681Z,4.75
2018-11-01T05:52:25.146Z,5.50
2018-11-01T05:54:52.998Z,3.25
2018-11-01T05:57:20.438Z,4.18
2018-11-01T05:59:47.945Z,3.20
2018-11-01T06:02:15.347Z,5.00
2018-11-01T06:04:42.771Z,4.87
2018-11-01T06:07:10.259Z,4.70
2018-11-01T06:09:37.840Z,3.67
2018-11-01T06:12:05.316Z,4.05
2018-11-01T06:14:32.763Z,4.80
2018-11-01T06:17:00.303Z,5.15
2018-11-01T06:19:27.779Z,3.78
2018-11-01T06:21:55.939Z,3.45
2018-11-01T06:24:23.434Z,3.75
2018-11-01T06:26:50.867Z,5.05
2018-11-01T06:29:18.914Z,6.15
2018-11-01T06:31:46.436Z,4.75
2018-11-01T06:34:13.868Z,4.10
2018-11-01T06:36:41.317Z,3.78
2018-11-01T06:39:08.742Z,3.80
2018-11-01T06:41:36.218Z,4.90
2018-11-01T06:44:03.820Z,4.60
2018-11-01T06:46:31.294Z,4.78
2018-11-01T06:48:58.771Z,4.68
2018-11-01T06:51:26.201Z,4.90
2018-11-01T06:53:54.354Z,3.37
2018-11-01T06:56:21.965Z,5.20
2018-11-01T06:58:49.503Z,3.28
2018-11-01T07:01:16.994Z,3.72
2018-11-01T07:03:44.418Z,4.90
2018-11-01T07:06:11.961Z,5.07
2018-11-01T07:08:39.475Z,5.07
2018-11-01T07:11:07.023Z,4.32
2018-11-01T07:13:34.611Z,4.45
2018-11-01T07:16:02.101Z,5.15
2018-11-01T07:18:29.602Z,5.62
2018-11-01T07:20:57.049Z,4.85
2018-11-01T07:23:24.537Z,7.28
2018-11-01T07:25:53.510Z,4.25
2018-11-01T07:28:20.854Z,4.35
2018-11-01T07:30:48.359Z,4.65
2018-11-01T07:33:15.785Z,4.70
2018-11-01T07:35:43.883Z,5.72
2018-11-01T07:38:11.803Z,4.55
2018-11-01T07:40:39.254Z,5.10
2018-11-01T07:43:06.721Z,3.22
2018-11-01T07:45:34.215Z,4.80
2018-11-01T07:48:01.655Z,5.45
2018-11-01T07:50:29.091Z,7.18
2018-11-01T07:52:56.615Z,4.47
2018-11-01T07:55:24.043Z,4.85
2018-11-01T07:57:51.565Z,5.22
2018-11-01T08:00:20.232Z,4.65
2018-11-01T08:02:47.841Z,4.47
2018-11-01T08:05:15.326Z,5.47
2018-11-01T08:07:42.897Z,4.70
2018-11-01T08:10:10.362Z,5.45
2018-11-01T08:12:37.944Z,6.30
2018-11-01T08:15:05.390Z,7.10
2018-11-01T08:17:33.072Z,7.28
2018-11-01T08:20:00.952Z,5.80
2018-11-01T08:22:28.446Z,5.72
2018-11-01T08:24:56.004Z,5.85
2018-11-01T08:27:23.492Z,8.80
2018-11-01T08:29:50.963Z,7.43
2018-11-01T08:32:19.118Z,5.82
2018-11-01T08:34:46.575Z,5.57
2018-11-01T08:37:14.015Z,6.25
2018-11-01T08:39:41.497Z,5.68
2018-11-01T08:42:08.982Z,6.32
2018-11-01T08:44:36.456Z,5.93
2018-11-01T08:47:03.962Z,4.22
2018-11-01T08:49:31.449Z,4.65
2018-11-01T08:51:58.903Z,4.47
2018-11-01T08:54:26.339Z,6.30
2018-11-01T08:56:53.797Z,6.30
2018-11-01T08:59:21.320Z,5.45
2018-11-01T09:01:48.816Z,7.10
2018-11-01T09:04:16.405Z,6.00
2018-11-01T09:06:43.918Z,6.68
2018-11-01T09:09:11.591Z,7.68
2018-11-01T09:11:39.158Z,11.23
2018-11-01T09:14:06.590Z,7.30
2018-11-01T09:16:34.064Z,5.97
2018-11-01T09:19:01.507Z,6.85
2018-11-01T09:21:29.025Z,6.70
2018-11-01T09:23:56.704Z,6.50
2018-11-01T09:26:24.147Z,7.28
2018-11-01T09:28:51.668Z,6.53
2018-11-01T09:31:19.115Z,7.72
2018-11-01T09:33:46.570Z,8.15
2018-11-01T09:36:14.578Z,7.85
2018-11-01T09:38:42.036Z,7.15
2018-11-01T09:41:09.588Z,6.87
2018-11-01T09:43:37.188Z,7.03
2018-11-01T09:46:04.730Z,6.03
2018-11-01T09:48:32.314Z,6.80
2018-11-01T09:51:00.375Z,6.28
2018-11-01T09:53:27.813Z,7.47
2018-11-01T09:55:55.414Z,7.32
2018-11-01T09:58:22.742Z,7.20
2018-11-01T10:00:50.238Z,7.20
2018-11-01T10:03:17.640Z,7.32
2018-11-01T10:05:45.156Z,7.32
2018-11-01T10:08:12.590Z,8.55
2018-11-01T10:10:40.035Z,7.28
2018-11-01T10:13:07.494Z,7.12
2018-11-01T10:15:35.278Z,10.10
2018-11-01T10:18:03.472Z,10.68
2018-11-01T10:20:30.787Z,9.98
2018-11-01T10:22:58.324Z,7.47
2018-11-01T10:25:25.941Z,8.43
2018-11-01T10:27:53.336Z,8.80
2018-11-01T10:30:20.942Z,9.65
2018-11-01T10:32:48.440Z,8.75
2018-11-01T10:35:15.945Z,6.65
2018-11-01T10:37:43.512Z,6.40
2018-11-01T10:40:11.059Z,6.18
2018-11-01T10:42:38.509Z,6.50
2018-11-01T10:45:05.993Z,6.80
2018-11-01T10:47:33.665Z,7.60
2018-11-01T10:50:01.611Z,7.30
2018-11-01T10:52:29.118Z,6.60
2018-11-01T10:54:56.547Z,5.05
2018-11-01T10:57:23.995Z,6.97
2018-11-01T10:59:51.527Z,7.75
2018-11-01T11:02:18.962Z,5.62
2018-11-01T11:04:46.483Z,5.25
2018-11-01T11:07:13.921Z,5.10
2018-11-01T11:09:41.358Z,6.03
2018-11-01T11:12:08.775Z,7.87
2018-11-01T11:14:36.400Z,5.12
2018-11-01T11:17:03.731Z,4.03
2018-11-01T11:19:31.167Z,4.80
2018-11-01T11:21:58.666Z,3.85
2018-11-01T11:24:26.142Z,3.58
2018-11-01T11:26:53.700Z,5.12
2018-11-01T11:29:21.334Z,4.62
2018-11-01T11:31:48.972Z,4.40
2018-11-01T11:34:16.433Z,4.35
2018-11-01T11:36:44.452Z,3.58
2018-11-01T11:39:12.139Z,4.40
2018-11-01T11:41:39.499Z,6.00
2018-11-01T11:44:07.033Z,5.70
2018-11-01T11:46:34.530Z,4.60
2018-11-01T11:49:01.979Z,4.12
2018-11-01T11:51:29.768Z,4.40
2018-11-01T11:53:57.204Z,4.68
2018-11-01T11:56:25.617Z,4.82
2018-11-01T11:58:53.287Z,4.32
2018-11-01T12:01:20.740Z,4.30
2018-11-01T12:03:48.201Z,5.40
2018-11-01T12:06:15.958Z,4.55
2018-11-01T12:08:43.271Z,4.62
2018-11-01T12:11:10.741Z,6.40
2018-11-01T12:13:38.191Z,3.90
2018-11-01T12:16:05.646Z,3.55
2018-11-01T12:18:33.096Z,4.05
2018-11-01T12:21:00.602Z,3.65
2018-11-01T12:23:28.070Z,3.95
2018-11-01T12:25:55.546Z,4.15
2018-11-01T12:28:23.039Z,3.05
2018-11-01T12:30:50.472Z,3.53
2018-11-01T12:33:18.088Z,3.85
2018-11-01T12:35:45.670Z,3.75
2018-11-01T12:38:13.034Z,3.70
2018-11-01T12:40:40.771Z,3.22
2018-11-01T12:43:08.246Z,4.72
2018-11-01T12:45:35.805Z,3.45
2018-11-01T12:48:03.290Z,3.80
2018-11-01T12:50:30.735Z,3.97
2018-11-01T12:52:58.195Z,2.10
2018-11-01T12:55:25.732Z,3.55
2018-11-01T12:57:53.209Z,2.55
2018-11-01T13:00:20.668Z,3.15
2018-11-01T13:02:48.210Z,3.22
2018-11-01T13:05:15.649Z,3.67
2018-11-01T13:07:44.040Z,2.85
2018-11-01T13:10:11.498Z,2.95
2018-11-01T13:12:39.081Z,3.45
2018-11-01T13:15:06.511Z,2.42
2018-11-01T13:17:34.002Z,2.35
2018-11-01T13:20:01.456Z,2.70
2018-11-01T13:22:28.936Z,2.20
2018-11-01T13:24:56.592Z,3.05
2018-11-01T13:27:24.083Z,2.30
2018-11-01T13:29:52.490Z,4.50
2018-11-01T13:32:20.643Z,2.90
2018-11-01T13:34:48.185Z,2.42
2018-11-01T13:37:15.657Z,4.32
2018-11-01T13:39:44.087Z,2.45
2018-11-01T13:42:11.463Z,2.25
2018-11-01T13:44:38.913Z,2.03
2018-11-01T13:47:06.488Z,1.40
2018-11-01T13:49:33.863Z,1.55
2018-11-01T13:52:01.417Z,1.75
2018-11-01T13:54:29.820Z,1.70
2018-11-01T13:56:57.207Z,1.37
2018-11-01T13:59:24.924Z,1.62
2018-11-01T14:01:52.742Z,1.70
2018-11-01T14:04:20.485Z,1.37
2018-11-01T14:06:48.129Z,1.95
2018-11-01T14:09:15.667Z,1.35
2018-11-01T14:11:44.008Z,1.10
2018-11-01T14:14:11.893Z,1.20
2018-11-01T14:16:39.854Z,1.45
2018-11-01T14:19:07.290Z,1.20
2018-11-01T14:21:34.723Z,1.10
2018-11-01T14:24:02.390Z,1.00
2018-11-01T14:26:30.884Z,1.23
2018-11-01T14:28:58.332Z,1.15
2018-11-01T14:31:25.873Z,1.33
2018-11-01T14:33:53.396Z,2.05
2018-11-01T14:36:21.229Z,2.37
2018-11-01T14:38:48.687Z,1.50
2018-11-01T14:41:16.192Z,1.67
2018-11-01T14:43:44.191Z,1.33
2018-11-01T14:46:11.782Z,1.40
2018-11-01T14:48:40.202Z,2.20
2018-11-01T14:51:07.693Z,1.20
2018-11-01T14:53:35.337Z,1.08
2018-11-01T14:56:04.322Z,1.50
2018-11-01T14:58:32.413Z,1.33
2018-11-01T15:00:58.974Z,1.67
2018-11-01T15:03:26.551Z,1.30
2018-11-01T15:05:54.055Z,0.95
2018-11-01T15:08:21.555Z,0.90
2018-11-01T15:10:49.164Z,0.80
2018-11-01T15:13:16.883Z,1.33
2018-11-01T15:15:44.305Z,1.48
2018-11-01T15:18:11.802Z,1.02
2018-11-01T15:20:40.019Z,0.90
2018-11-01T15:23:07.602Z,1.10
2018-11-01T15:25:35.106Z,1.58
2018-11-01T15:28:02.569Z,0.95
2018-11-01T15:30:32.814Z,1.20
2018-11-01T15:33:00.255Z,1.27
2018-11-01T15:35:28.613Z,1.67
2018-11-01T15:37:56.130Z,1.50
2018-11-01T15:40:23.630Z,1.08
2018-11-01T15:42:51.063Z,1.30
2018-11-01T15:45:18.573Z,1.65
2018-11-01T15:47:46.020Z,1.60
2018-11-01T15:50:13.531Z,1.20
2018-11-01T15:52:41.173Z,0.90
2018-11-01T15:55:08.651Z,1.45
2018-11-01T15:57:36.102Z,1.12
2018-11-01T16:00:03.549Z,1.00
2018-11-01T16:02:31.186Z,1.30
2018-11-01T16:04:58.599Z,2.58
2018-11-01T16:07:26.034Z,1.20
2018-11-01T16:09:53.604Z,1.50
2018-11-01T16:12:21.027Z,1.33
2018-11-01T16:14:48.495Z,1.10
2018-11-01T16:17:15.968Z,1.45
2018-11-01T16:19:43.526Z,1.70
2018-11-01T16:22:10.922Z,1.62
2018-11-01T16:24:38.382Z,1.12
2018-11-01T16:27:05.870Z,1.15
2018-11-01T16:29:33.390Z,1.30
2018-11-01T16:32:01.108Z,1.70
2018-11-01T16:34:28.844Z,1.48
2018-11-01T16:36:56.289Z,1.20
2018-11-01T16:39:23.729Z,1.92
2018-11-01T16:41:51.188Z,1.15
2018-11-01T16:44:18.635Z,2.87
2018-11-01T16:46:46.063Z,0.90
2018-11-01T16:49:13.538Z,1.30
2018-11-01T16:51:40.988Z,1.37
2018-11-01T16:54:08.428Z,1.00
2018-11-01T16:56:35.855Z,1.35
2018-11-01T16:59:03.611Z,1.15
2018-11-01T17:01:31.120Z,1.30
2018-11-01T17:03:58.579Z,1.40
2018-11-01T17:06:26.020Z,0.90
2018-11-01T17:08:53.475Z,0.90
2018-11-01T17:11:20.922Z,1.25
2018-11-01T17:13:48.394Z,0.80
2018-11-01T17:16:15.849Z,1.92
2018-11-01T17:18:43.664Z,1.00
2018-11-01T17:21:11.692Z,1.20
2018-11-01T17:23:39.988Z,0.88
2018-11-01T17:26:08.354Z,0.95
2018-11-01T17:28:36.797Z,1.15
2018-11-01T17:31:05.111Z,1.37
2018-11-01T17:33:33.614Z,1.37
2018-11-01T17:36:01.439Z,1.25
2018-11-01T17:38:28.962Z,0.90
2018-11-01T17:40:56.445Z,1.20
2018-11-01T17:43:23.958Z,1.58
2018-11-01T17:45:51.431Z,1.27
2018-11-01T17:48:19.030Z,1.05
2018-11-01T17:50:46.471Z,1.15
2018-11-01T17:53:13.961Z,1.25
2018-11-01T17:55:41.450Z,0.95
2018-11-01T17:58:08.936Z,1.15
2018-11-01T18:00:36.377Z,1.20
2018-11-01T18:03:03.896Z,1.37
2018-11-01T18:05:31.346Z,0.90
2018-11-01T18:07:58.973Z,1.08
2018-11-01T18:10:26.429Z,0.80
2018-11-01T18:12:53.890Z,1.35
2018-11-01T18:15:21.323Z,1.77
2018-11-01T18:17:48.783Z,1.55
2018-11-01T18:20:16.245Z,1.85
2018-11-01T18:22:43.693Z,1.40
2018-11-01T18:25:11.151Z,1.20
2018-11-01T18:27:38.611Z,0.88
2018-11-01T18:30:06.273Z,1.60
2018-11-01T18:32:33.870Z,1.10
2018-11-01T18:35:01.223Z,1.40
2018-11-01T18:37:28.768Z,1.40
2018-11-01T18:39:56.292Z,1.00
2018-11-01T18:42:23.780Z,1.75
2018-11-01T18:44:51.214Z,1.42
2018-11-01T18:47:18.703Z,1.10
2018-11-01T18:49:46.160Z,1.15
2018-11-01T18:52:13.623Z,0.70
2018-11-01T18:54:41.077Z,1.70
2018-11-01T18:57:08.640Z,1.10
2018-11-01T18:59:36.199Z,1.30
2018-11-01T19:02:03.649Z,1.05
2018-11-01T19:04:31.107Z,1.15
2018-11-01T19:06:58.641Z,1.55
2018-11-01T19:09:26.043Z,1.48
2018-11-01T19:11:53.516Z,1.55
2018-11-01T19:14:21.042Z,1.73
2018-11-01T19:16:48.451Z,1.95
2018-11-01T19:19:15.904Z,1.10
2018-11-01T19:21:43.412Z,0.88
2018-11-01T19:24:10.848Z,2.03
2018-11-01T19:26:38.438Z,2.72
2018-11-01T19:29:05.836Z,1.83
2018-11-01T19:31:33.350Z,1.60
2018-11-01T19:34:00.989Z,1.70
2018-11-01T19:36:28.663Z,1.87
2018-11-01T19:38:56.153Z,1.77
2018-11-01T19:41:24.806Z,1.15
2018-11-01T19:43:53.352Z,1.30
2018-11-01T19:46:20.787Z,1.65
2018-11-01T19:48:48.262Z,1.17
2018-11-01T19:51:15.717Z,2.00
2018-11-01T19:53:43.154Z,3.10
2018-11-01T19:56:10.601Z,1.48
2018-11-01T19:58:38.071Z,1.50
2018-11-01T20:01:05.512Z,1.40
2018-11-01T20:03:33.110Z,0.90
2018-11-01T20:06:00.596Z,1.80
2018-11-01T20:08:28.121Z,1.15
2018-11-01T20:10:55.554Z,1.20
2018-11-01T20:13:23.133Z,2.20
2018-11-01T20:15:50.669Z,1.83
2018-11-01T20:18:18.100Z,3.28
2018-11-01T20:20:45.569Z,1.48
2018-11-01T20:23:13.057Z,1.62
2018-11-01T20:25:40.794Z,2.28
2018-11-01T20:28:08.230Z,1.45
2018-11-01T20:30:35.878Z,2.12
2018-11-01T20:33:03.520Z,1.17
2018-11-01T20:35:30.974Z,2.00
2018-11-01T20:37:58.467Z,1.50
2018-11-01T20:40:25.878Z,1.60
2018-11-01T20:42:53.456Z,1.70
2018-11-01T20:45:20.940Z,2.10
2018-11-01T20:47:48.433Z,1.90
2018-11-01T20:50:15.995Z,1.33
2018-11-01T20:52:43.410Z,1.70
2018-11-01T20:55:10.977Z,1.70
2018-11-01T20:57:38.517Z,2.40
2018-11-01T21:00:06.004Z,2.55
2018-11-01T21:02:33.480Z,2.22
2018-11-01T21:05:01.062Z,1.27
2018-11-01T21:07:28.461Z,3.00
2018-11-01T21:09:55.992Z,1.80
2018-11-01T21:12:23.440Z,2.12
2018-11-01T21:14:50.899Z,1.77
2018-11-01T21:17:18.340Z,1.90
2018-11-01T21:19:45.771Z,1.40
2018-11-01T21:22:13.252Z,1.20
2018-11-01T21:24:40.726Z,2.83
2018-11-01T21:27:08.169Z,1.60
2018-11-01T21:29:35.885Z,1.70
2018-11-01T21:32:03.742Z,1.60
2018-11-01T21:34:31.228Z,1.60
2018-11-01T21:36:58.891Z,1.02
2018-11-01T21:39:26.333Z,1.80
2018-11-01T21:41:53.869Z,1.37
2018-11-01T21:44:21.300Z,2.67
2018-11-01T21:46:48.783Z,2.12
2018-11-01T21:49:16.311Z,1.15
2018-11-01T21:51:43.839Z,1.70
2018-11-01T21:54:11.282Z,1.23
2018-11-01T21:56:38.851Z,2.20
2018-11-01T21:59:06.351Z,1.42
2018-11-01T22:01:33.878Z,1.90
2018-11-01T22:04:01.324Z,1.55
2018-11-01T22:06:28.818Z,1.20
2018-11-01T22:08:56.249Z,1.90
2018-11-01T22:11:23.783Z,1.77
2018-11-01T22:13:51.223Z,2.30
2018-11-01T22:16:20.403Z,2.28
2018-11-01T22:18:47.981Z,2.17
2018-11-01T22:21:15.582Z,1.60
2018-11-01T22:23:43.672Z,1.90
2018-11-01T22:26:11.160Z,1.70
2018-11-01T22:28:38.637Z,2.60
2018-11-01T22:31:06.040Z,1.55
2018-11-01T22:33:33.495Z,1.45
2018-11-01T22:36:00.965Z,2.03
2018-11-01T22:38:29.287Z,3.00
2018-11-01T22:40:56.679Z,3.20
2018-11-01T22:43:24.121Z,2.65
2018-11-01T22:45:51.853Z,2.78
2018-11-01T22:48:19.314Z,1.70
2018-11-01T22:50:46.801Z,1.90
2018-11-01T22:53:14.371Z,2.00
2018-11-01T22:55:41.804Z,3.17
2018-11-01T22:58:09.257Z,2.28
2018-11-01T23:00:36.875Z,1.98
2018-11-01T23:03:04.319Z,2.15
2018-11-01T23:05:31.933Z,2.05
2018-11-01T23:07:59.410Z,2.87
2018-11-01T23:10:26.971Z,1.62
2018-11-01T23:12:54.408Z,2.40
2018-11-01T23:15:21.869Z,1.60
2018-11-01T23:17:49.351Z,1.70
2018-11-01T23:20:16.805Z,2.10
2018-11-01T23:22:44.257Z,1.73
2018-11-01T23:25:11.703Z,6.45
2018-11-01T23:27:39.147Z,2.25
2018-11-01T23:30:06.594Z,2.15
2018-11-01T23:32:34.120Z,2.53
2018-11-01T23:35:01.624Z,4.00
2018-11-01T23:37:35.382Z,2.37
2018-11-01T23:40:08.538Z,2.45
2018-11-01T23:42:41.672Z,1.70
2018-11-01T23:45:14.819Z,2.25
2018-11-01T23:47:47.933Z,3.00
2018-11-01T23:50:15.449Z,3.20
2018-11-01T23:52:42.896Z,2.45
2018-11-01T23:55:10.335Z,1.90
2018-11-01T23:57:37.768Z,2.37
